sensor_id;sensor_type;location;lat;lon;timestamp;pressure;altitude;pressure_sealevel;temperature;humidity
59951;BME280;45812;53.540;9.774;2023-09-19T00:00:56;100325.59;;;16.15;100.00
59951;BME280;45812;53.540;9.774;2023-09-19T00:03:21;100334.09;;;16.18;100.00
59951;BME280;45812;53.540;9.774;2023-09-19T00:05:48;100326.63;;;16.14;100.00
59951;BME280;45812;53.540;9.774;2023-09-19T00:08:15;100326.25;;;16.10;100.00
59951;BME280;45812;53.540;9.774;2023-09-19T00:10:40;100332.69;;;16.02;100.00
59951;BME280;45812;53.540;9.774;2023-09-19T00:13:07;100354.56;;;15.99;100.00
59951;BME280;45812;53.540;9.774;2023-09-19T00:15:43;100335.78;;;15.99;100.00
59951;BME280;45812;53.540;9.774;2023-09-19T00:18:14;100338.03;;;15.96;100.00
59951;BME280;45812;53.540;9.774;2023-09-19T00:20:40;100346.31;;;16.01;100.00
59951;BME280;45812;53.540;9.774;2023-09-19T00:23:07;100335.97;;;16.04;100.00
59951;BME280;45812;53.540;9.774;2023-09-19T00:25:34;100331.81;;;16.09;100.00
59951;BME280;45812;53.540;9.774;2023-09-19T00:28:00;100354.56;;;16.06;100.00
59951;BME280;45812;53.540;9.774;2023-09-19T00:30:26;100345.66;;;15.99;100.00
59951;BME280;45812;53.540;9.774;2023-09-19T00:32:51;100340.28;;;15.99;100.00
59951;BME280;45812;53.540;9.774;2023-09-19T00:35:18;100332.69;;;16.02;100.00
59951;BME280;45812;53.540;9.774;2023-09-19T00:37:44;100327.09;;;16.04;100.00
59951;BME280;45812;53.540;9.774;2023-09-19T00:40:10;100334.09;;;16.05;100.00
59951;BME280;45812;53.540;9.774;2023-09-19T00:42:38;100345.06;;;16.03;100.00
59951;BME280;45812;53.540;9.774;2023-09-19T00:45:04;100325.22;;;15.98;100.00
59951;BME280;45812;53.540;9.774;2023-09-19T00:47:30;100350.63;;;15.95;100.00
59951;BME280;45812;53.540;9.774;2023-09-19T00:49:56;100349.19;;;15.93;100.00
59951;BME280;45812;53.540;9.774;2023-09-19T00:52:21;100376.03;;;15.93;100.00
59951;BME280;45812;53.540;9.774;2023-09-19T00:54:49;100352.91;;;15.92;100.00
59951;BME280;45812;53.540;9.774;2023-09-19T00:57:14;100344.88;;;15.92;100.00
59951;BME280;45812;53.540;9.774;2023-09-19T00:59:41;100356.44;;;15.92;100.00
59951;BME280;45812;53.540;9.774;2023-09-19T01:02:07;100348.78;;;15.96;100.00
59951;BME280;45812;53.540;9.774;2023-09-19T01:04:33;100356.81;;;15.96;100.00
59951;BME280;45812;53.540;9.774;2023-09-19T01:06:58;100346.69;;;15.98;100.00
59951;BME280;45812;53.540;9.774;2023-09-19T01:09:24;100353.31;;;16.02;100.00
59951;BME280;45812;53.540;9.774;2023-09-19T01:11:53;100353.72;;;16.05;100.00
59951;BME280;45812;53.540;9.774;2023-09-19T01:17:25;100359.91;;;16.13;100.00
59951;BME280;45812;53.540;9.774;2023-09-19T01:20:25;100364.84;;;16.16;100.00
59951;BME280;45812;53.540;9.774;2023-09-19T01:25:50;100364.22;;;16.27;100.00
59951;BME280;45812;53.540;9.774;2023-09-19T01:28:30;100369.34;;;16.35;100.00
59951;BME280;45812;53.540;9.774;2023-09-19T01:31:02;100368.31;;;16.36;100.00
59951;BME280;45812;53.540;9.774;2023-09-19T01:33:28;100368.94;;;16.38;100.00
59951;BME280;45812;53.540;9.774;2023-09-19T01:35:58;100366.88;;;16.33;100.00
59951;BME280;45812;53.540;9.774;2023-09-19T01:38:24;100370.41;;;16.27;100.00
59951;BME280;45812;53.540;9.774;2023-09-19T01:41:05;100378.50;;;16.21;100.00
59951;BME280;45812;53.540;9.774;2023-09-19T01:43:37;100400.19;;;16.13;99.85
59951;BME280;45812;53.540;9.774;2023-09-19T01:46:21;100393.78;;;16.07;100.00
59951;BME280;45812;53.540;9.774;2023-09-19T01:48:56;100402.69;;;16.01;100.00
59951;BME280;45812;53.540;9.774;2023-09-19T01:51:33;100396.88;;;15.97;100.00
59951;BME280;45812;53.540;9.774;2023-09-19T01:54:02;100395.44;;;15.95;100.00
59951;BME280;45812;53.540;9.774;2023-09-19T01:56:34;100407.03;;;15.89;100.00
59951;BME280;45812;53.540;9.774;2023-09-19T01:59:07;100399.59;;;15.84;100.00
59951;BME280;45812;53.540;9.774;2023-09-19T02:01:34;100405.78;;;15.85;100.00
59951;BME280;45812;53.540;9.774;2023-09-19T02:04:02;100399.56;;;15.78;100.00
59951;BME280;45812;53.540;9.774;2023-09-19T02:06:27;100412.78;;;15.79;100.00
59951;BME280;45812;53.540;9.774;2023-09-19T02:08:54;100418.97;;;15.80;100.00
59951;BME280;45812;53.540;9.774;2023-09-19T02:11:19;100424.34;;;15.73;100.00
59951;BME280;45812;53.540;9.774;2023-09-19T02:13:44;100423.72;;;15.71;100.00
59951;BME280;45812;53.540;9.774;2023-09-19T02:16:10;100430.13;;;15.70;100.00
59951;BME280;45812;53.540;9.774;2023-09-19T02:18:35;100424.97;;;15.68;100.00
59951;BME280;45812;53.540;9.774;2023-09-19T02:21:02;100423.94;;;15.69;100.00
59951;BME280;45812;53.540;9.774;2023-09-19T02:23:29;100423.53;;;15.72;100.00
59951;BME280;45812;53.540;9.774;2023-09-19T02:25:55;100428.28;;;15.77;100.00
59951;BME280;45812;53.540;9.774;2023-09-19T02:28:22;100417.75;;;15.82;100.00
59951;BME280;45812;53.540;9.774;2023-09-19T02:30:48;100429.31;;;15.89;100.00
59951;BME280;45812;53.540;9.774;2023-09-19T02:33:15;100427.66;;;15.95;100.00
59951;BME280;45812;53.540;9.774;2023-09-19T02:35:42;100423.31;;;15.94;100.00
59951;BME280;45812;53.540;9.774;2023-09-19T02:38:07;100428.91;;;15.92;100.00
59951;BME280;45812;53.540;9.774;2023-09-19T02:40:33;100444.16;;;15.98;100.00
59951;BME280;45812;53.540;9.774;2023-09-19T02:43:00;100441.72;;;16.03;100.00
59951;BME280;45812;53.540;9.774;2023-09-19T02:45:26;100434.28;;;16.05;100.00
59951;BME280;45812;53.540;9.774;2023-09-19T02:47:52;100435.72;;;16.08;100.00
59951;BME280;45812;53.540;9.774;2023-09-19T02:50:17;100440.88;;;16.10;100.00
59951;BME280;45812;53.540;9.774;2023-09-19T02:52:43;100428.69;;;16.07;100.00
59951;BME280;45812;53.540;9.774;2023-09-19T02:55:10;100439.22;;;16.09;100.00
59951;BME280;45812;53.540;9.774;2023-09-19T02:57:36;100430.34;;;16.08;100.00
59951;BME280;45812;53.540;9.774;2023-09-19T03:00:07;100430.97;;;16.10;100.00
59951;BME280;45812;53.540;9.774;2023-09-19T03:02:33;100444.19;;;16.12;100.00
59951;BME280;45812;53.540;9.774;2023-09-19T03:05:00;100443.97;;;16.13;100.00
59951;BME280;45812;53.540;9.774;2023-09-19T03:07:25;100437.78;;;16.13;100.00
59951;BME280;45812;53.540;9.774;2023-09-19T03:09:50;100446.84;;;16.12;100.00
59951;BME280;45812;53.540;9.774;2023-09-19T03:12:18;100434.69;;;16.09;100.00
59951;BME280;45812;53.540;9.774;2023-09-19T03:14:43;100447.50;;;16.07;100.00
59951;BME280;45812;53.540;9.774;2023-09-19T03:17:08;100456.97;;;16.10;100.00
59951;BME280;45812;53.540;9.774;2023-09-19T03:19:34;100450.56;;;16.11;100.00
59951;BME280;45812;53.540;9.774;2023-09-19T03:21:59;100452.03;;;16.13;100.00
59951;BME280;45812;53.540;9.774;2023-09-19T03:24:25;100463.78;;;16.12;100.00
59951;BME280;45812;53.540;9.774;2023-09-19T03:26:51;100465.66;;;16.05;100.00
59951;BME280;45812;53.540;9.774;2023-09-19T03:29:16;100468.16;;;16.00;100.00
59951;BME280;45812;53.540;9.774;2023-09-19T03:31:42;100469.38;;;15.91;100.00
59951;BME280;45812;53.540;9.774;2023-09-19T03:34:07;100483.00;;;15.83;100.00
59951;BME280;45812;53.540;9.774;2023-09-19T03:36:33;100475.53;;;15.78;100.00
59951;BME280;45812;53.540;9.774;2023-09-19T03:38:58;100487.53;;;15.75;100.00
59951;BME280;45812;53.540;9.774;2023-09-19T03:41:23;100488.56;;;15.68;100.00
59951;BME280;45812;53.540;9.774;2023-09-19T03:43:48;100486.03;;;15.60;100.00
59951;BME280;45812;53.540;9.774;2023-09-19T03:46:14;100481.66;;;15.52;100.00
59951;BME280;45812;53.540;9.774;2023-09-19T03:48:40;100504.31;;;15.43;100.00
59951;BME280;45812;53.540;9.774;2023-09-19T03:51:05;100506.38;;;15.34;100.00
59951;BME280;45812;53.540;9.774;2023-09-19T03:53:31;100507.19;;;15.28;100.00
59951;BME280;45812;53.540;9.774;2023-09-19T03:55:56;100498.88;;;15.17;100.00
59951;BME280;45812;53.540;9.774;2023-09-19T03:58:22;100511.03;;;15.12;100.00
59951;BME280;45812;53.540;9.774;2023-09-19T04:00:47;100520.72;;;15.07;99.44
59951;BME280;45812;53.540;9.774;2023-09-19T04:03:14;100502.91;;;14.99;99.31
59951;BME280;45812;53.540;9.774;2023-09-19T04:05:45;100497.72;;;14.91;98.94
59951;BME280;45812;53.540;9.774;2023-09-19T04:08:11;100520.56;;;14.87;98.02
59951;BME280;45812;53.540;9.774;2023-09-19T04:10:37;100517.22;;;14.78;97.52
59951;BME280;45812;53.540;9.774;2023-09-19T04:13:02;100518.22;;;14.71;97.81
59951;BME280;45812;53.540;9.774;2023-09-19T04:15:29;100514.25;;;14.67;97.73
59951;BME280;45812;53.540;9.774;2023-09-19T04:17:54;100521.88;;;14.63;97.51
59951;BME280;45812;53.540;9.774;2023-09-19T04:20:20;100541.22;;;14.59;97.12
59951;BME280;45812;53.540;9.774;2023-09-19T04:22:45;100535.63;;;14.53;97.55
59951;BME280;45812;53.540;9.774;2023-09-19T04:25:11;100532.69;;;14.48;97.60
59951;BME280;45812;53.540;9.774;2023-09-19T04:27:37;100547.50;;;14.44;97.63
59951;BME280;45812;53.540;9.774;2023-09-19T04:30:03;100549.34;;;14.44;97.27
59951;BME280;45812;53.540;9.774;2023-09-19T04:32:30;100556.09;;;14.40;97.34
59951;BME280;45812;53.540;9.774;2023-09-19T04:34:57;100550.09;;;14.38;97.72
59951;BME280;45812;53.540;9.774;2023-09-19T04:37:25;100564.50;;;14.37;97.42
59951;BME280;45812;53.540;9.774;2023-09-19T04:39:50;100557.06;;;14.32;97.68
59951;BME280;45812;53.540;9.774;2023-09-19T04:42:15;100557.22;;;14.31;98.20
59951;BME280;45812;53.540;9.774;2023-09-19T04:44:41;100558.25;;;14.30;98.03
59951;BME280;45812;53.540;9.774;2023-09-19T04:47:07;100547.53;;;14.30;98.00
59951;BME280;45812;53.540;9.774;2023-09-19T04:49:32;100549.78;;;14.26;98.45
59951;BME280;45812;53.540;9.774;2023-09-19T04:51:58;100565.22;;;14.24;98.39
59951;BME280;45812;53.540;9.774;2023-09-19T04:54:23;100562.28;;;14.19;99.01
59951;BME280;45812;53.540;9.774;2023-09-19T04:56:48;100564.97;;;14.19;99.07
59951;BME280;45812;53.540;9.774;2023-09-19T04:59:14;100552.59;;;14.18;98.27
59951;BME280;45812;53.540;9.774;2023-09-19T05:01:40;100560.81;;;14.16;99.05
59951;BME280;45812;53.540;9.774;2023-09-19T05:04:05;100568.66;;;14.18;99.10
59951;BME280;45812;53.540;9.774;2023-09-19T05:06:30;100565.16;;;14.17;98.92
59951;BME280;45812;53.540;9.774;2023-09-19T05:08:56;100570.50;;;14.17;99.29
59951;BME280;45812;53.540;9.774;2023-09-19T05:11:21;100576.41;;;14.13;99.53
59951;BME280;45812;53.540;9.774;2023-09-19T05:13:48;100581.53;;;14.08;100.00
59951;BME280;45812;53.540;9.774;2023-09-19T05:16:15;100581.28;;;14.03;100.00
59951;BME280;45812;53.540;9.774;2023-09-19T05:18:41;100581.22;;;13.96;100.00
59951;BME280;45812;53.540;9.774;2023-09-19T05:21:07;100583.59;;;13.91;100.00
59951;BME280;45812;53.540;9.774;2023-09-19T05:23:32;100585.06;;;13.93;100.00
59951;BME280;45812;53.540;9.774;2023-09-19T05:25:58;100583.59;;;13.91;100.00
59951;BME280;45812;53.540;9.774;2023-09-19T05:28:25;100577.25;;;13.92;100.00
59951;BME280;45812;53.540;9.774;2023-09-19T05:30:50;100579.28;;;13.90;100.00
59951;BME280;45812;53.540;9.774;2023-09-19T05:33:16;100580.50;;;13.87;100.00
59951;BME280;45812;53.540;9.774;2023-09-19T05:35:43;100576.78;;;13.88;100.00
59951;BME280;45812;53.540;9.774;2023-09-19T05:38:08;100585.47;;;13.90;100.00
59951;BME280;45812;53.540;9.774;2023-09-19T05:40:34;100582.97;;;13.89;100.00
59951;BME280;45812;53.540;9.774;2023-09-19T05:43:00;100576.78;;;13.88;100.00
59951;BME280;45812;53.540;9.774;2023-09-19T05:45:25;100601.50;;;13.90;100.00
59951;BME280;45812;53.540;9.774;2023-09-19T05:47:52;100606.31;;;13.95;100.00
59951;BME280;45812;53.540;9.774;2023-09-19T05:50:21;100607.59;;;13.99;100.00
59951;BME280;45812;53.540;9.774;2023-09-19T05:52:53;100608.47;;;14.06;100.00
59951;BME280;45812;53.540;9.774;2023-09-19T05:55:18;100602.34;;;14.12;100.00
59951;BME280;45812;53.540;9.774;2023-09-19T05:57:50;100596.69;;;14.22;99.48
59951;BME280;45812;53.540;9.774;2023-09-19T06:00:15;100600.88;;;14.31;98.98
59951;BME280;45812;53.540;9.774;2023-09-19T06:02:43;100603.47;;;14.39;98.83
59951;BME280;45812;53.540;9.774;2023-09-19T06:05:09;100599.84;;;14.47;97.79
59951;BME280;45812;53.540;9.774;2023-09-19T06:07:35;100604.69;;;14.58;97.90
59951;BME280;45812;53.540;9.774;2023-09-19T06:10:05;100604.16;;;14.69;97.29
59951;BME280;45812;53.540;9.774;2023-09-19T06:12:32;100600.50;;;14.77;96.80
59951;BME280;45812;53.540;9.774;2023-09-19T06:15:00;100615.78;;;14.83;96.61
59951;BME280;45812;53.540;9.774;2023-09-19T06:17:25;100610.69;;;14.88;96.32
59951;BME280;45812;53.540;9.774;2023-09-19T06:19:52;100624.53;;;14.92;95.28
59951;BME280;45812;53.540;9.774;2023-09-19T06:22:17;100628.25;;;14.97;95.12
59951;BME280;45812;53.540;9.774;2023-09-19T06:24:44;100636.13;;;14.99;95.11
59951;BME280;45812;53.540;9.774;2023-09-19T06:27:09;100625.00;;;15.02;94.67
59951;BME280;45812;53.540;9.774;2023-09-19T06:29:34;100633.72;;;15.10;93.70
59951;BME280;45812;53.540;9.774;2023-09-19T06:32:06;100624.25;;;15.14;93.35
59951;BME280;45812;53.540;9.774;2023-09-19T06:34:31;100623.66;;;15.19;93.02
59951;BME280;45812;53.540;9.774;2023-09-19T06:36:57;100606.59;;;15.27;93.39
59951;BME280;45812;53.540;9.774;2023-09-19T06:39:22;100628.09;;;15.33;92.59
59951;BME280;45812;53.540;9.774;2023-09-19T06:41:48;100627.09;;;15.41;92.22
59951;BME280;45812;53.540;9.774;2023-09-19T06:44:14;100614.13;;;15.44;91.70
59951;BME280;45812;53.540;9.774;2023-09-19T06:46:39;100621.97;;;15.46;91.85
59951;BME280;45812;53.540;9.774;2023-09-19T06:49:07;100634.97;;;15.49;91.84
59951;BME280;45812;53.540;9.774;2023-09-19T06:51:32;100629.84;;;15.54;90.86
59951;BME280;45812;53.540;9.774;2023-09-19T06:54:00;100622.03;;;15.59;91.20
59951;BME280;45812;53.540;9.774;2023-09-19T06:56:25;100627.88;;;15.63;91.59
59951;BME280;45812;53.540;9.774;2023-09-19T06:58:50;100633.25;;;15.69;90.91
59951;BME280;45812;53.540;9.774;2023-09-19T07:01:16;100629.13;;;15.73;91.21
59951;BME280;45812;53.540;9.774;2023-09-19T07:03:41;100646.28;;;15.79;90.00
59951;BME280;45812;53.540;9.774;2023-09-19T07:06:06;100653.13;;;15.82;90.40
59951;BME280;45812;53.540;9.774;2023-09-19T07:08:32;100641.31;;;15.76;90.68
59951;BME280;45812;53.540;9.774;2023-09-19T07:10:57;100658.28;;;15.83;90.89
59951;BME280;45812;53.540;9.774;2023-09-19T07:13:22;100653.97;;;15.89;90.49
59951;BME280;45812;53.540;9.774;2023-09-19T07:15:49;100665.31;;;15.91;89.95
59951;BME280;45812;53.540;9.774;2023-09-19T07:18:16;100676.28;;;15.89;90.26
59951;BME280;45812;53.540;9.774;2023-09-19T07:20:42;100672.34;;;15.92;89.90
59951;BME280;45812;53.540;9.774;2023-09-19T07:23:14;100671.31;;;15.93;90.05
59951;BME280;45812;53.540;9.774;2023-09-19T07:25:40;100683.72;;;15.94;89.70
59951;BME280;45812;53.540;9.774;2023-09-19T07:28:05;100671.31;;;15.93;90.46
59951;BME280;45812;53.540;9.774;2023-09-19T07:30:31;100667.00;;;15.98;89.59
59951;BME280;45812;53.540;9.774;2023-09-19T07:32:56;100697.34;;;15.99;89.72
59951;BME280;45812;53.540;9.774;2023-09-19T07:35:21;100686.19;;;15.89;90.08
59951;BME280;45812;53.540;9.774;2023-09-19T07:37:48;100698.34;;;15.85;91.36
59951;BME280;45812;53.540;9.774;2023-09-19T07:40:21;100700.22;;;15.84;91.31
59951;BME280;45812;53.540;9.774;2023-09-19T07:42:46;100709.84;;;15.72;95.05
59951;BME280;45812;53.540;9.774;2023-09-19T07:45:12;100719.31;;;15.12;100.00
59951;BME280;45812;53.540;9.774;2023-09-19T07:47:48;100700.03;;;14.52;100.00
59951;BME280;45812;53.540;9.774;2023-09-19T07:50:14;100701.88;;;14.16;100.00
59951;BME280;45812;53.540;9.774;2023-09-19T07:52:41;100709.94;;;14.01;100.00
59951;BME280;45812;53.540;9.774;2023-09-19T07:55:07;100724.41;;;13.92;100.00
59951;BME280;45812;53.540;9.774;2023-09-19T07:57:36;100706.69;;;13.91;100.00
59951;BME280;45812;53.540;9.774;2023-09-19T08:00:02;100719.81;;;13.86;100.00
59951;BME280;45812;53.540;9.774;2023-09-19T08:02:33;100695.75;;;13.71;100.00
59951;BME280;45812;53.540;9.774;2023-09-19T08:04:58;100704.25;;;13.60;100.00
59951;BME280;45812;53.540;9.774;2023-09-19T08:07:25;100704.31;;;13.67;100.00
59951;BME280;45812;53.540;9.774;2023-09-19T08:09:50;100700.38;;;13.77;100.00
59951;BME280;45812;53.540;9.774;2023-09-19T08:12:16;100696.56;;;13.86;100.00
59951;BME280;45812;53.540;9.774;2023-09-19T08:14:42;100708.00;;;13.95;100.00
59951;BME280;45812;53.540;9.774;2023-09-19T08:17:07;100695.09;;;13.99;100.00
59951;BME280;45812;53.540;9.774;2023-09-19T08:19:33;100686.88;;;14.00;100.00
59951;BME280;45812;53.540;9.774;2023-09-19T08:21:58;100692.47;;;14.05;100.00
59951;BME280;45812;53.540;9.774;2023-09-19T08:24:25;100690.63;;;14.06;100.00
59951;BME280;45812;53.540;9.774;2023-09-19T08:26:53;100688.19;;;14.11;100.00
59951;BME280;45812;53.540;9.774;2023-09-19T08:29:19;100693.22;;;14.14;100.00
59951;BME280;45812;53.540;9.774;2023-09-19T08:31:45;100697.34;;;14.16;100.00
59951;BME280;45812;53.540;9.774;2023-09-19T08:34:10;100695.78;;;14.07;100.00
59951;BME280;45812;53.540;9.774;2023-09-19T08:36:35;100706.94;;;14.11;100.00
59951;BME280;45812;53.540;9.774;2023-09-19T08:39:02;100688.84;;;14.13;100.00
59951;BME280;45812;53.540;9.774;2023-09-19T08:41:27;100696.34;;;14.17;100.00
59951;BME280;45812;53.540;9.774;2023-09-19T08:43:53;100702.63;;;14.31;100.00
59951;BME280;45812;53.540;9.774;2023-09-19T08:46:20;100705.50;;;14.30;100.00
59951;BME280;45812;53.540;9.774;2023-09-19T08:48:51;100738.13;;;14.33;100.00
59951;BME280;45812;53.540;9.774;2023-09-19T08:51:30;100698.47;;;14.43;100.00
59951;BME280;45812;53.540;9.774;2023-09-19T08:54:08;100699.56;;;14.49;100.00
59951;BME280;45812;53.540;9.774;2023-09-19T08:56:36;100702.56;;;14.61;100.00
59951;BME280;45812;53.540;9.774;2023-09-19T08:59:05;100705.38;;;14.74;100.00
59951;BME280;45812;53.540;9.774;2023-09-19T09:01:35;100720.44;;;14.75;100.00
59951;BME280;45812;53.540;9.774;2023-09-19T09:04:01;100706.31;;;14.66;100.00
59951;BME280;45812;53.540;9.774;2023-09-19T09:06:29;100715.38;;;14.65;100.00
59951;BME280;45812;53.540;9.774;2023-09-19T09:08:55;100716.69;;;14.69;100.00
59951;BME280;45812;53.540;9.774;2023-09-19T09:11:21;100744.47;;;14.68;100.00
59951;BME280;45812;53.540;9.774;2023-09-19T09:13:47;100737.97;;;14.77;100.00
59951;BME280;45812;53.540;9.774;2023-09-19T09:16:13;100715.97;;;14.82;100.00
59951;BME280;45812;53.540;9.774;2023-09-19T09:18:39;100713.41;;;14.95;100.00
59951;BME280;45812;53.540;9.774;2023-09-19T09:21:05;100716.06;;;15.17;100.00
59951;BME280;45812;53.540;9.774;2023-09-19T09:23:31;100715.13;;;15.31;95.54
59951;BME280;45812;53.540;9.774;2023-09-19T09:25:58;100722.63;;;15.42;95.98
59951;BME280;45812;53.540;9.774;2023-09-19T09:28:29;100729.59;;;15.36;94.83
59951;BME280;45812;53.540;9.774;2023-09-19T09:30:56;100719.31;;;15.40;93.80
59951;BME280;45812;53.540;9.774;2023-09-19T09:33:23;100714.75;;;15.62;95.06
59951;BME280;45812;53.540;9.774;2023-09-19T09:35:54;100719.19;;;15.83;91.75
59951;BME280;45812;53.540;9.774;2023-09-19T09:38:23;100735.94;;;15.85;89.51
59951;BME280;45812;53.540;9.774;2023-09-19T09:40:55;100728.72;;;15.92;90.31
59951;BME280;45812;53.540;9.774;2023-09-19T09:43:37;100732.91;;;16.01;88.95
59951;BME280;45812;53.540;9.774;2023-09-19T09:46:07;100740.38;;;16.12;87.52
59951;BME280;45812;53.540;9.774;2023-09-19T09:49:03;100719.75;;;16.19;85.08
59951;BME280;45812;53.540;9.774;2023-09-19T09:51:51;100729.28;;;16.22;82.95
59951;BME280;45812;53.540;9.774;2023-09-19T09:54:25;100721.03;;;16.30;83.51
59951;BME280;45812;53.540;9.774;2023-09-19T09:56:57;100721.06;;;16.43;84.04
59951;BME280;45812;53.540;9.774;2023-09-19T09:59:53;100733.28;;;16.52;81.55
59951;BME280;45812;53.540;9.774;2023-09-19T10:02:30;100724.41;;;16.65;78.46
59951;BME280;45812;53.540;9.774;2023-09-19T10:05:13;100718.63;;;16.55;76.72
59951;BME280;45812;53.540;9.774;2023-09-19T10:07:54;100736.63;;;16.61;79.00
59951;BME280;45812;53.540;9.774;2023-09-19T10:10:36;100709.19;;;16.79;75.49
59951;BME280;45812;53.540;9.774;2023-09-19T10:13:09;100723.47;;;16.99;77.51
59951;BME280;45812;53.540;9.774;2023-09-19T10:15:42;100713.72;;;17.38;76.19
59951;BME280;45812;53.540;9.774;2023-09-19T10:18:20;100729.38;;;17.61;75.81
59951;BME280;45812;53.540;9.774;2023-09-19T10:20:46;100729.78;;;17.64;73.85
59951;BME280;45812;53.540;9.774;2023-09-19T10:23:14;100723.59;;;17.77;74.38
59951;BME280;45812;53.540;9.774;2023-09-19T10:25:46;100723.19;;;17.60;72.04
59951;BME280;45812;53.540;9.774;2023-09-19T10:28:13;100735.22;;;17.44;73.70
59951;BME280;45812;53.540;9.774;2023-09-19T10:30:44;100743.47;;;17.63;71.59
59951;BME280;45812;53.540;9.774;2023-09-19T10:33:15;100748.06;;;17.49;72.89
59951;BME280;45812;53.540;9.774;2023-09-19T10:35:46;100725.72;;;17.35;72.47
59951;BME280;45812;53.540;9.774;2023-09-19T10:38:15;100723.03;;;17.22;74.64
59951;BME280;45812;53.540;9.774;2023-09-19T10:40:44;100723.00;;;17.29;73.10
59951;BME280;45812;53.540;9.774;2023-09-19T10:43:13;100731.69;;;17.50;72.40
59951;BME280;45812;53.540;9.774;2023-09-19T10:45:44;100724.41;;;17.77;70.58
59951;BME280;45812;53.540;9.774;2023-09-19T10:48:09;100721.97;;;18.21;69.59
59951;BME280;45812;53.540;9.774;2023-09-19T10:50:57;100721.00;;;18.85;67.01
59951;BME280;45812;53.540;9.774;2023-09-19T10:53:25;100718.31;;;19.53;62.72
59951;BME280;45812;53.540;9.774;2023-09-19T10:55:54;100728.78;;;19.67;60.04
59951;BME280;45812;53.540;9.774;2023-09-19T10:58:26;100736.16;;;19.79;60.15
59951;BME280;45812;53.540;9.774;2023-09-19T11:00:55;100733.66;;;19.95;60.39
59951;BME280;45812;53.540;9.774;2023-09-19T11:03:22;100746.03;;;19.85;59.16
59951;BME280;45812;53.540;9.774;2023-09-19T11:06:02;100732.59;;;19.60;60.40
59951;BME280;45812;53.540;9.774;2023-09-19T11:08:54;100723.88;;;19.33;61.13
59951;BME280;45812;53.540;9.774;2023-09-19T11:11:42;100728.03;;;19.35;61.82
59951;BME280;45812;53.540;9.774;2023-09-19T11:30:51;100712.72;;;20.09;54.69
59951;BME280;45812;53.540;9.774;2023-09-19T11:33:29;100745.59;;;19.88;56.21
59951;BME280;45812;53.540;9.774;2023-09-19T11:36:12;100736.50;;;19.64;56.10
59951;BME280;45812;53.540;9.774;2023-09-19T11:38:57;100723.44;;;20.16;55.44
59951;BME280;45812;53.540;9.774;2023-09-19T11:43:52;100714.22;;;21.07;52.88
59951;BME280;45812;53.540;9.774;2023-09-19T11:46:20;100719.41;;;21.55;51.78
59951;BME280;45812;53.540;9.774;2023-09-19T11:48:49;100710.91;;;21.87;50.68
59951;BME280;45812;53.540;9.774;2023-09-19T11:51:17;100713.38;;;21.88;49.79
59951;BME280;45812;53.540;9.774;2023-09-19T11:53:54;100711.56;;;21.94;49.32
59951;BME280;45812;53.540;9.774;2023-09-19T11:56:22;100708.66;;;21.84;48.65
59951;BME280;45812;53.540;9.774;2023-09-19T11:58:50;100708.56;;;21.79;49.52
59951;BME280;45812;53.540;9.774;2023-09-19T12:01:30;100707.09;;;21.24;50.00
59951;BME280;45812;53.540;9.774;2023-09-19T12:03:58;100710.38;;;21.50;50.91
59951;BME280;45812;53.540;9.774;2023-09-19T12:06:25;100716.50;;;22.20;48.80
59951;BME280;45812;53.540;9.774;2023-09-19T12:08:51;100717.69;;;22.01;48.31
59951;BME280;45812;53.540;9.774;2023-09-19T12:11:19;100706.47;;;22.66;47.72
59951;BME280;45812;53.540;9.774;2023-09-19T12:13:46;100713.34;;;23.19;44.33
59951;BME280;45812;53.540;9.774;2023-09-19T12:16:14;100713.06;;;23.54;43.52
59951;BME280;45812;53.540;9.774;2023-09-19T12:18:41;100705.53;;;24.22;43.49
59951;BME280;45812;53.540;9.774;2023-09-19T12:21:21;100703.50;;;24.12;42.91
59951;BME280;45812;53.540;9.774;2023-09-19T12:24:14;100703.56;;;23.95;42.37
59951;BME280;45812;53.540;9.774;2023-09-19T12:26:44;100700.81;;;23.51;43.33
59951;BME280;45812;53.540;9.774;2023-09-19T12:31:55;100707.47;;;23.61;44.25
59951;BME280;45812;53.540;9.774;2023-09-19T12:34:26;100694.09;;;24.73;41.87
59951;BME280;45812;53.540;9.774;2023-09-19T12:37:09;100721.59;;;24.01;42.23
59951;BME280;45812;53.540;9.774;2023-09-19T12:39:39;100701.22;;;24.26;41.65
59951;BME280;45812;53.540;9.774;2023-09-19T12:42:07;100723.34;;;24.88;39.68
59951;BME280;45812;53.540;9.774;2023-09-19T12:44:35;100686.66;;;25.80;38.51
59951;BME280;45812;53.540;9.774;2023-09-19T12:47:08;100698.63;;;25.74;38.86
59951;BME280;45812;53.540;9.774;2023-09-19T12:49:34;100689.28;;;25.65;38.42
59951;BME280;45812;53.540;9.774;2023-09-19T12:51:59;100698.88;;;26.40;36.09
59951;BME280;45812;53.540;9.774;2023-09-19T12:54:37;100698.34;;;26.43;34.66
59951;BME280;45812;53.540;9.774;2023-09-19T12:57:03;100695.63;;;26.43;34.99
59951;BME280;45812;53.540;9.774;2023-09-19T12:59:30;100677.09;;;27.01;35.26
59951;BME280;45812;53.540;9.774;2023-09-19T13:02:04;100697.03;;;27.12;33.47
59951;BME280;45812;53.540;9.774;2023-09-19T13:04:32;100676.53;;;26.89;34.14
59951;BME280;45812;53.540;9.774;2023-09-19T13:06:59;100674.06;;;26.67;34.48
59951;BME280;45812;53.540;9.774;2023-09-19T13:09:27;100672.16;;;27.24;34.25
59951;BME280;45812;53.540;9.774;2023-09-19T13:11:59;100666.69;;;27.08;34.56
59951;BME280;45812;53.540;9.774;2023-09-19T13:14:28;100675.34;;;27.51;33.00
59951;BME280;45812;53.540;9.774;2023-09-19T13:17:00;100671.00;;;28.59;32.25
59951;BME280;45812;53.540;9.774;2023-09-19T13:19:48;100655.34;;;29.75;30.02